Time;durP1;ratioP1;P1;durP2;ratioP2;P2;SDS_P1;SDS_P2;PMS_P1;PMS_P2;Temp;Humidity;BMP_temperature;BMP_pressure;BME280_temperature;BME280_humidity;BME280_pressure;Samples;Min_cycle;Max_cycle;Signal;HPM_P1;HPM_P2
2021/07/17 00:02:04;;;;;;;0.50;0.30;;;18.50;99.90;;;;;;5036576;28;20446;-81
2021/07/17 00:04:31;;;;;;;0.50;0.30;;;18.50;99.90;;;;;;5035368;28;20438;-81
2021/07/17 00:07:00;;;;;;;0.50;0.30;;;18.50;99.90;;;;;;5035550;28;20450;-81
2021/07/17 00:09:27;;;;;;;0.50;0.30;;;18.50;99.90;;;;;;5036038;28;20435;-80
2021/07/17 00:11:54;;;;;;;0.50;0.30;;;18.50;99.90;;;;;;5035796;28;20445;-80
2021/07/17 00:14:20;;;;;;;0.50;0.30;;;18.50;99.90;;;;;;5035650;28;21002;-81
2021/07/17 00:16:48;;;;;;;0.50;0.30;;;18.50;99.90;;;;;;5035227;28;20851;-82
2021/07/17 00:19:16;;;;;;;0.50;0.30;;;18.50;99.90;;;;;;5036077;28;20474;-81
2021/07/17 00:21:43;;;;;;;0.50;0.30;;;18.50;99.90;;;;;;5035457;28;20446;-80
2021/07/17 00:24:09;;;;;;;0.50;0.30;;;18.50;99.90;;;;;;5035771;28;20447;-78
2021/07/17 00:26:36;;;;;;;0.50;0.30;;;18.40;99.90;;;;;;5035634;28;20445;-81
2021/07/17 00:29:03;;;;;;;0.50;0.30;;;18.40;99.90;;;;;;5035514;28;20458;-79
2021/07/17 00:31:30;;;;;;;0.50;0.30;;;18.40;99.90;;;;;;5035746;28;20816;-80
2021/07/17 00:33:58;;;;;;;0.50;0.30;;;18.50;99.90;;;;;;5035384;28;20477;-80
2021/07/17 00:36:25;;;;;;;0.50;0.30;;;18.50;99.90;;;;;;5035335;28;20439;-81
2021/07/17 00:38:52;;;;;;;0.50;0.30;;;18.40;99.90;;;;;;5035070;28;20473;-80
2021/07/17 00:41:19;;;;;;;0.50;0.40;;;18.40;99.90;;;;;;5035547;28;20936;-81
2021/07/17 00:43:45;;;;;;;0.50;0.40;;;18.40;99.90;;;;;;5035499;28;20438;-80
2021/07/17 00:46:12;;;;;;;0.50;0.40;;;18.40;99.90;;;;;;5034733;28;20533;-77
2021/07/17 00:48:40;;;;;;;0.50;0.40;;;18.40;99.90;;;;;;5035278;28;20478;-81
2021/07/17 00:51:08;;;;;;;0.50;0.30;;;18.40;99.90;;;;;;5035415;28;20466;-81
2021/07/17 00:53:35;;;;;;;0.50;0.30;;;18.40;99.90;;;;;;5034377;28;20474;-81
2021/07/17 00:56:02;;;;;;;0.50;0.30;;;18.40;99.90;;;;;;5035272;28;20442;-80
2021/07/17 00:58:36;;;;;;;0.80;0.70;;;18.40;99.90;;;;;;5034578;28;20463;-81
2021/07/17 01:01:03;;;;;;;0.50;0.30;;;18.30;99.90;;;;;;5035117;28;20940;-81
2021/07/17 01:03:31;;;;;;;0.50;0.30;;;18.30;99.90;;;;;;5035099;28;20434;-80
2021/07/17 01:05:57;;;;;;;0.50;0.30;;;18.30;99.90;;;;;;5040534;28;20880;-82
2021/07/17 01:08:26;;;;;;;0.50;0.40;;;18.30;99.90;;;;;;5038092;28;20469;-81
2021/07/17 01:10:53;;;;;;;0.50;0.30;;;18.30;99.90;;;;;;5034569;28;20485;-80
2021/07/17 01:13:20;;;;;;;0.50;0.30;;;18.30;99.90;;;;;;5034837;28;20446;-81
2021/07/17 01:15:46;;;;;;;0.57;0.50;;;18.20;99.90;;;;;;5034519;28;20443;-81
2021/07/17 01:18:13;;;;;;;0.50;0.30;;;18.20;99.90;;;;;;5033626;28;20466;-81
2021/07/17 01:20:41;;;;;;;0.50;0.40;;;18.20;99.90;;;;;;5035385;28;20439;-80
2021/07/17 01:23:09;;;;;;;0.50;0.30;;;18.20;99.90;;;;;;5034028;28;20451;-77
2021/07/17 01:25:36;;;;;;;0.50;0.40;;;18.20;99.90;;;;;;5033824;28;20443;-80
2021/07/17 01:28:04;;;;;;;0.50;0.30;;;18.20;99.90;;;;;;5034296;28;20462;-79
2021/07/17 01:30:32;;;;;;;0.50;0.30;;;18.20;99.90;;;;;;5034543;28;20437;-80
2021/07/17 01:33:00;;;;;;;0.50;0.30;;;18.20;99.90;;;;;;5034562;28;20450;-82
2021/07/17 01:35:27;;;;;;;0.50;0.30;;;18.10;99.90;;;;;;5034300;28;20524;-80
2021/07/17 01:37:54;;;;;;;0.50;0.30;;;18.10;99.90;;;;;;5033524;28;20847;-80
2021/07/17 01:40:22;;;;;;;0.50;0.40;;;18.10;99.90;;;;;;5034160;28;20427;-80
2021/07/17 01:42:51;;;;;;;0.50;0.30;;;18.20;99.90;;;;;;5034013;28;20445;-81
2021/07/17 01:45:27;;;;;;;0.50;0.30;;;18.10;99.90;;;;;;5034157;28;20944;-80
2021/07/17 01:47:55;;;;;;;0.50;0.30;;;18.10;99.90;;;;;;5033388;28;20458;-82
2021/07/17 01:50:24;;;;;;;0.50;0.30;;;18.10;99.90;;;;;;5034116;28;20785;-80
2021/07/17 01:52:51;;;;;;;2.93;1.83;;;18.10;99.90;;;;;;5033625;28;20442;-81
2021/07/17 01:55:19;;;;;;;0.50;0.40;;;18.10;99.90;;;;;;5033637;28;20478;-80
2021/07/17 01:57:48;;;;;;;0.50;0.30;;;18.10;99.90;;;;;;5033509;28;20462;-80
2021/07/17 02:00:16;;;;;;;0.50;0.30;;;18.10;99.90;;;;;;5033440;28;20443;-81
2021/07/17 02:02:43;;;;;;;0.50;0.30;;;18.00;99.90;;;;;;5033596;28;20493;-81
2021/07/17 02:05:11;;;;;;;0.60;0.60;;;18.00;99.90;;;;;;5033758;28;20435;-81
2021/07/17 02:07:38;;;;;;;0.50;0.30;;;18.00;99.90;;;;;;5033373;28;20474;-81
2021/07/17 02:10:06;;;;;;;0.50;0.30;;;18.00;99.90;;;;;;5033273;28;20943;-77
2021/07/17 02:12:33;;;;;;;0.50;0.30;;;18.00;99.90;;;;;;5033559;28;20438;-80
2021/07/17 02:15:01;;;;;;;0.50;0.30;;;18.00;99.90;;;;;;5033329;28;20478;-81
2021/07/17 02:17:28;;;;;;;0.50;0.30;;;18.00;99.90;;;;;;5033912;28;20469;-80
2021/07/17 02:19:54;;;;;;;0.50;0.30;;;18.00;99.90;;;;;;5033792;28;20439;-83
2021/07/17 02:22:21;;;;;;;0.50;0.40;;;18.00;99.90;;;;;;5034123;28;20457;-80
2021/07/17 02:24:48;;;;;;;0.50;0.30;;;18.00;99.90;;;;;;5033321;28;20493;-80
2021/07/17 02:27:14;;;;;;;0.50;0.30;;;18.00;99.90;;;;;;5033163;28;20513;-80
2021/07/17 02:29:41;;;;;;;0.70;0.70;;;18.00;99.90;;;;;;5033825;28;20453;-81
2021/07/17 02:32:09;;;;;;;0.50;0.30;;;18.00;99.90;;;;;;5033829;28;20438;-78
2021/07/17 02:34:36;;;;;;;0.50;0.40;;;18.00;99.90;;;;;;5033432;28;20478;-81
2021/07/17 02:37:03;;;;;;;0.50;0.30;;;18.00;99.90;;;;;;5032989;28;20430;-80
2021/07/17 02:39:29;;;;;;;0.50;0.30;;;18.00;99.90;;;;;;5033059;28;20815;-82
2021/07/17 02:41:56;;;;;;;0.50;0.40;;;18.00;99.90;;;;;;5032849;28;20446;-80
2021/07/17 02:44:23;;;;;;;0.50;0.30;;;18.00;99.90;;;;;;5033948;28;20434;-80
2021/07/17 02:46:50;;;;;;;0.50;0.40;;;18.00;99.90;;;;;;5033090;28;20454;-81
2021/07/17 02:49:18;;;;;;;0.50;0.30;;;18.00;99.90;;;;;;5033335;28;20553;-81
2021/07/17 02:51:45;;;;;;;0.50;0.40;;;18.00;99.90;;;;;;5032449;28;20442;-81
2021/07/17 02:54:12;;;;;;;0.50;0.40;;;18.00;99.90;;;;;;5032728;28;20840;-79
2021/07/17 02:56:39;;;;;;;0.50;0.30;;;18.00;99.90;;;;;;5032794;28;20541;-80
2021/07/17 02:59:06;;;;;;;0.50;0.30;;;18.00;99.90;;;;;;5032790;28;20465;-80
2021/07/17 03:01:33;;;;;;;0.50;0.30;;;18.00;99.90;;;;;;5032012;28;20442;-81
2021/07/17 03:03:59;;;;;;;0.50;0.30;;;17.90;99.90;;;;;;5032736;28;20434;-81
2021/07/17 03:06:27;;;;;;;0.50;0.30;;;18.00;99.90;;;;;;5032269;28;20442;-82
2021/07/17 03:08:54;;;;;;;0.50;0.30;;;17.90;99.90;;;;;;5033297;28;20501;-81
2021/07/17 03:11:21;;;;;;;0.50;0.30;;;17.90;99.90;;;;;;5032804;28;20449;-80
2021/07/17 03:13:48;;;;;;;0.50;0.30;;;17.90;99.90;;;;;;5036179;28;20442;-80
2021/07/17 03:16:15;;;;;;;0.50;0.30;;;17.90;99.90;;;;;;5036045;28;20478;-77
2021/07/17 03:18:42;;;;;;;0.50;0.30;;;17.90;99.90;;;;;;5036009;28;20851;-80
2021/07/17 03:21:09;;;;;;;0.50;0.30;;;17.90;99.90;;;;;;5036133;28;20438;-80
2021/07/17 03:23:37;;;;;;;0.50;0.30;;;17.90;99.90;;;;;;5035963;28;20442;-79
2021/07/17 03:26:04;;;;;;;0.50;0.40;;;17.90;99.90;;;;;;5035962;28;20804;-77
2021/07/17 03:28:30;;;;;;;0.50;0.30;;;17.90;99.90;;;;;;5035834;28;20454;-79
2021/07/17 03:30:57;;;;;;;0.50;0.30;;;17.90;99.90;;;;;;5035732;28;20438;-80
2021/07/17 03:33:24;;;;;;;0.50;0.40;;;17.90;99.90;;;;;;5035584;28;20445;-79
2021/07/17 03:35:50;;;;;;;0.50;0.30;;;17.90;99.90;;;;;;5035295;28;20471;-79
2021/07/17 03:38:17;;;;;;;0.50;0.30;;;17.90;99.90;;;;;;5035222;28;20458;-78
2021/07/17 03:40:45;;;;;;;0.50;0.30;;;17.90;99.90;;;;;;5035604;28;20445;-80
2021/07/17 03:43:12;;;;;;;0.50;0.30;;;17.90;99.90;;;;;;5035613;28;20928;-79
2021/07/17 03:45:39;;;;;;;0.50;0.30;;;17.90;99.90;;;;;;5035038;28;20445;-81
2021/07/17 03:48:06;;;;;;;0.50;0.30;;;17.90;99.90;;;;;;5034731;28;20455;-80
2021/07/17 03:50:33;;;;;;;0.50;0.30;;;17.80;99.90;;;;;;5034741;28;20450;-80
2021/07/17 03:52:59;;;;;;;0.50;0.30;;;17.80;99.90;;;;;;5034675;28;20439;-79
2021/07/17 03:55:26;;;;;;;0.70;0.70;;;17.80;99.90;;;;;;5034857;28;20503;-79
2021/07/17 03:57:54;;;;;;;0.50;0.30;;;17.80;99.90;;;;;;5034362;28;20466;-80
2021/07/17 04:00:21;;;;;;;0.50;0.30;;;17.90;99.90;;;;;;5035102;28;20443;-81
2021/07/17 04:02:48;;;;;;;0.50;0.30;;;17.90;99.90;;;;;;5034955;28;20453;-79
2021/07/17 04:05:17;;;;;;;0.50;0.37;;;17.90;99.90;;;;;;5035277;28;20443;-80
2021/07/17 04:07:44;;;;;;;0.50;0.40;;;17.90;99.90;;;;;;5034256;28;20984;-81
2021/07/17 04:10:13;;;;;;;0.50;0.30;;;18.00;99.90;;;;;;5035166;28;20431;-79
2021/07/17 04:12:40;;;;;;;0.50;0.30;;;18.00;99.90;;;;;;5034703;28;21059;-78
2021/07/17 04:15:09;;;;;;;0.50;0.30;;;17.90;99.90;;;;;;5034481;28;20478;-80
2021/07/17 04:17:36;;;;;;;1.27;1.17;;;17.90;99.90;;;;;;5034241;28;20527;-81
2021/07/17 04:20:03;;;;;;;0.50;0.30;;;17.90;99.90;;;;;;5034631;28;20950;-81
2021/07/17 04:22:30;;;;;;;0.50;0.30;;;17.90;99.90;;;;;;5034547;28;20456;-79
2021/07/17 04:24:56;;;;;;;0.50;0.30;;;17.90;99.90;;;;;;5034201;28;20966;-79
2021/07/17 04:27:23;;;;;;;0.50;0.40;;;17.90;99.90;;;;;;5033973;28;20990;-79
2021/07/17 04:29:50;;;;;;;0.50;0.30;;;17.90;99.90;;;;;;5034664;28;20450;-79
2021/07/17 04:32:18;;;;;;;0.50;0.30;;;17.90;99.90;;;;;;5034657;28;20443;-78
2021/07/17 04:34:45;;;;;;;0.50;0.30;;;17.90;99.90;;;;;;5034067;28;20481;-79
2021/07/17 04:37:15;;;;;;;0.50;0.30;;;17.90;99.90;;;;;;5033922;28;20455;-81
2021/07/17 04:39:42;;;;;;;0.63;0.63;;;17.90;99.90;;;;;;5034280;28;20471;-80
2021/07/17 04:42:09;;;;;;;0.50;0.30;;;18.00;99.90;;;;;;5034293;28;20470;-76
2021/07/17 04:44:35;;;;;;;0.50;0.30;;;18.00;99.90;;;;;;5034274;28;20442;-79
2021/07/17 04:47:02;;;;;;;0.50;0.30;;;18.00;99.90;;;;;;5033510;28;20816;-80
2021/07/17 04:49:30;;;;;;;0.50;0.30;;;18.10;99.90;;;;;;5034076;28;20431;-80
2021/07/17 04:51:57;;;;;;;0.50;0.30;;;18.10;99.90;;;;;;5033894;28;20442;-80
2021/07/17 04:54:24;;;;;;;0.50;0.30;;;18.10;99.90;;;;;;5034516;28;20443;-79
2021/07/17 04:56:51;;;;;;;0.50;0.40;;;18.10;99.90;;;;;;5034132;28;20438;-82
2021/07/17 04:59:17;;;;;;;0.50;0.30;;;18.20;99.90;;;;;;5034737;28;20469;-80
2021/07/17 05:01:44;;;;;;;2.40;1.13;;;18.20;99.90;;;;;;5034733;28;20431;-80
2021/07/17 05:04:11;;;;;;;0.50;0.40;;;18.20;99.90;;;;;;5034429;28;20450;-78
2021/07/17 05:06:39;;;;;;;0.50;0.40;;;18.20;99.90;;;;;;5033887;28;20808;-81
2021/07/17 05:09:06;;;;;;;0.50;0.40;;;18.20;99.90;;;;;;5034082;28;20473;-79
2021/07/17 05:11:33;;;;;;;0.50;0.30;;;18.20;99.90;;;;;;5034668;28;20445;-80
2021/07/17 05:14:00;;;;;;;0.50;0.30;;;18.30;99.90;;;;;;5034872;28;20446;-80
2021/07/17 05:16:27;;;;;;;0.50;0.30;;;18.20;99.90;;;;;;5033191;28;20482;-80
2021/07/17 05:18:54;;;;;;;0.50;0.30;;;18.30;99.90;;;;;;5034072;28;20455;-80
2021/07/17 05:21:20;;;;;;;0.50;0.30;;;18.40;99.90;;;;;;5034071;28;20936;-82
2021/07/17 05:23:48;;;;;;;0.50;0.30;;;18.50;99.90;;;;;;5034722;28;20446;-81
2021/07/17 05:26:15;;;;;;;0.50;0.30;;;18.60;99.90;;;;;;5033250;28;20517;-78
2021/07/17 05:28:43;;;;;;;2.70;2.50;;;18.70;99.90;;;;;;5033995;28;20878;-79
2021/07/17 05:31:09;;;;;;;0.50;0.30;;;18.70;99.90;;;;;;5034007;28;20442;-80
2021/07/17 05:33:36;;;;;;;0.50;0.40;;;18.70;99.90;;;;;;5034227;28;20489;-80
2021/07/17 05:36:03;;;;;;;0.50;0.33;;;18.80;99.90;;;;;;5032834;28;20571;-77
2021/07/17 05:38:30;;;;;;;0.50;0.30;;;18.70;99.90;;;;;;5034333;28;20542;-81
2021/07/17 05:40:58;;;;;;;0.50;0.40;;;18.70;99.90;;;;;;5033386;28;20439;-80
2021/07/17 05:43:25;;;;;;;0.50;0.30;;;18.60;99.90;;;;;;5033698;28;20943;-81
2021/07/17 05:45:53;;;;;;;0.50;0.30;;;18.60;99.90;;;;;;5033826;28;20427;-79
2021/07/17 05:48:20;;;;;;;0.70;0.60;;;18.60;99.90;;;;;;5033286;28;20509;-78
2021/07/17 05:50:48;;;;;;;0.50;0.30;;;18.60;99.90;;;;;;5033597;28;20438;-80
2021/07/17 05:53:15;;;;;;;0.50;0.30;;;18.60;99.90;;;;;;5033068;28;20458;-81
2021/07/17 05:55:42;;;;;;;2.03;1.83;;;18.70;99.90;;;;;;5033882;28;20952;-79
2021/07/17 05:58:10;;;;;;;0.50;0.30;;;18.70;99.90;;;;;;5033206;28;20459;-81
2021/07/17 06:00:37;;;;;;;0.50;0.50;;;18.80;99.90;;;;;;5033386;28;20485;-79
2021/07/17 06:03:04;;;;;;;0.50;0.30;;;18.70;99.90;;;;;;5033473;28;20465;-80
2021/07/17 06:05:30;;;;;;;0.50;0.30;;;18.70;99.90;;;;;;5033599;28;20488;-80
2021/07/17 06:07:57;;;;;;;0.50;0.30;;;18.70;99.90;;;;;;5033214;28;20536;-79
2021/07/17 06:10:24;;;;;;;0.50;0.30;;;18.60;99.90;;;;;;5033652;28;20427;-81
2021/07/17 06:12:50;;;;;;;1.10;1.10;;;18.60;99.90;;;;;;5033358;28;20439;-81
2021/07/17 06:15:18;;;;;;;0.50;0.40;;;18.70;99.90;;;;;;5033476;28;20466;-79
2021/07/17 06:17:45;;;;;;;0.50;0.50;;;18.70;99.90;;;;;;5033264;28;20458;-80
2021/07/17 06:20:12;;;;;;;0.50;0.30;;;18.60;99.90;;;;;;5032932;28;20446;-81
2021/07/17 06:22:39;;;;;;;0.50;0.30;;;18.70;99.90;;;;;;5033318;28;20442;-80
2021/07/17 06:25:06;;;;;;;0.50;0.30;;;18.80;99.90;;;;;;5033421;28;20797;-81
2021/07/17 06:27:33;;;;;;;0.50;0.40;;;19.00;99.90;;;;;;5033032;28;20469;-81
2021/07/17 06:29:59;;;;;;;0.50;0.30;;;19.00;99.90;;;;;;5033377;28;20453;-80
2021/07/17 06:32:28;;;;;;;0.50;0.30;;;19.10;99.90;;;;;;5033240;28;20859;-81
2021/07/17 06:34:54;;;;;;;2.30;0.83;;;19.30;99.90;;;;;;5033478;28;20446;-80
2021/07/17 06:37:21;;;;;;;0.50;0.30;;;19.30;99.90;;;;;;5032632;28;20454;-80
2021/07/17 06:39:48;;;;;;;0.50;0.30;;;19.40;99.90;;;;;;5033066;28;20438;-81
2021/07/17 06:42:14;;;;;;;0.50;0.40;;;19.50;99.90;;;;;;5033108;28;20450;-80
2021/07/17 06:44:41;;;;;;;0.50;0.40;;;19.50;99.90;;;;;;5032376;28;20789;-80
2021/07/17 06:47:09;;;;;;;1.33;1.23;;;19.40;99.90;;;;;;5035512;28;20435;-80
2021/07/17 06:49:37;;;;;;;0.50;0.30;;;19.40;99.90;;;;;;5037611;28;20470;-80
2021/07/17 06:52:04;;;;;;;0.50;0.30;;;19.30;99.90;;;;;;5036618;28;20438;-80
2021/07/17 06:54:31;;;;;;;0.50;0.30;;;19.40;99.90;;;;;;5036447;28;20949;-81
2021/07/17 06:56:57;;;;;;;0.50;0.30;;;19.40;99.90;;;;;;5036886;28;20478;-79
2021/07/17 06:59:24;;;;;;;1.13;1.13;;;19.50;99.90;;;;;;5036873;28;20473;-81
2021/07/17 07:01:51;;;;;;;0.50;0.33;;;19.70;99.90;;;;;;5037092;28;20442;-82
2021/07/17 07:04:17;;;;;;;0.50;0.30;;;19.80;99.90;;;;;;5037083;28;20448;-80
2021/07/17 07:06:46;;;;;;;0.50;0.30;;;19.90;99.90;;;;;;5036630;28;20431;-81
2021/07/17 07:09:14;;;;;;;1.07;1.07;;;20.00;99.90;;;;;;5036986;28;20695;-80
2021/07/17 07:11:41;;;;;;;0.50;0.30;;;20.00;99.90;;;;;;5037083;28;20864;-80
2021/07/17 07:14:08;;;;;;;0.50;0.40;;;19.90;99.90;;;;;;5036692;28;20447;-80
2021/07/17 07:16:35;;;;;;;0.50;0.40;;;19.90;99.90;;;;;;5036561;28;21063;-80
2021/07/17 07:19:01;;;;;;;0.50;0.30;;;20.00;99.90;;;;;;5036239;28;20464;-81
2021/07/17 07:21:28;;;;;;;0.50;0.30;;;20.20;99.90;;;;;;5036474;28;20447;-80
2021/07/17 07:23:56;;;;;;;0.50;0.40;;;20.30;99.90;;;;;;5036921;28;20444;-81
2021/07/17 07:26:23;;;;;;;0.50;0.30;;;20.40;99.90;;;;;;5036859;28;20436;-80
2021/07/17 07:28:49;;;;;;;0.60;0.60;;;20.70;99.90;;;;;;5037099;28;20474;-81
2021/07/17 07:31:16;;;;;;;0.50;0.30;;;20.90;99.90;;;;;;5036161;28;20451;-79
2021/07/17 07:33:43;;;;;;;1.43;1.33;;;21.00;99.90;;;;;;5036682;28;20466;-79
2021/07/17 07:36:09;;;;;;;0.50;0.50;;;21.00;99.90;;;;;;5035923;28;20475;-80
2021/07/17 07:38:36;;;;;;;0.50;0.30;;;21.00;99.90;;;;;;5036204;28;21002;-81
2021/07/17 07:41:04;;;;;;;0.50;0.30;;;21.00;99.90;;;;;;5036822;28;20527;-80
2021/07/17 07:43:31;;;;;;;0.50;0.30;;;21.30;99.90;;;;;;5036133;28;20444;-80
2021/07/17 07:45:58;;;;;;;0.80;0.63;;;21.40;99.90;;;;;;5035743;28;20442;-80
2021/07/17 07:48:24;;;;;;;0.50;0.30;;;21.50;99.90;;;;;;5035762;28;20461;-81
2021/07/17 07:50:51;;;;;;;0.50;0.33;;;21.60;99.90;;;;;;5036559;28;20444;-80
2021/07/17 07:53:18;;;;;;;0.50;0.40;;;21.70;99.90;;;;;;5036067;28;20849;-80
2021/07/17 07:55:45;;;;;;;0.93;0.80;;;21.90;99.90;;;;;;5036475;28;20477;-80
2021/07/17 07:58:13;;;;;;;0.50;0.30;;;22.10;99.90;;;;;;5034107;28;20967;-80
2021/07/17 08:00:40;;;;;;;0.50;0.30;;;22.20;99.90;;;;;;5036428;28;20445;-81
2021/07/17 08:03:06;;;;;;;0.50;0.30;;;22.30;99.90;;;;;;5036407;28;20470;-80
2021/07/17 08:05:33;;;;;;;0.50;0.30;;;22.50;99.90;;;;;;5035790;28;20868;-82
2021/07/17 08:08:00;;;;;;;0.50;0.30;;;22.70;99.90;;;;;;5034858;28;20489;-81
2021/07/17 08:10:26;;;;;;;0.50;0.30;;;22.70;99.90;;;;;;5036021;28;20448;-80
2021/07/17 08:12:54;;;;;;;0.60;0.50;;;23.00;99.90;;;;;;5035485;28;20783;-80
2021/07/17 08:15:23;;;;;;;1.17;1.07;;;23.10;99.90;;;;;;5036063;28;20446;-80
2021/07/17 08:17:49;;;;;;;0.50;0.30;;;23.10;99.90;;;;;;5035430;28;20843;-80
2021/07/17 08:20:16;;;;;;;0.50;0.30;;;23.10;99.90;;;;;;5035878;28;20449;-82
2021/07/17 08:22:44;;;;;;;0.50;0.30;;;23.30;99.90;;;;;;5034963;28;20493;-80
2021/07/17 08:25:11;;;;;;;2.10;1.23;;;23.70;99.90;;;;;;5035620;28;20439;-81
2021/07/17 08:27:38;;;;;;;0.50;0.30;;;24.70;99.90;;;;;;5035058;28;20485;-80
2021/07/17 08:30:07;;;;;;;0.50;0.30;;;25.90;99.90;;;;;;5036009;28;20442;-80
2021/07/17 08:32:35;;;;;;;0.50;0.30;;;26.80;99.90;;;;;;5035202;28;20452;-82
2021/07/17 08:35:02;;;;;;;0.50;0.30;;;27.50;99.90;;;;;;5035839;28;20495;-81
2021/07/17 08:37:28;;;;;;;0.50;0.30;;;28.20;99.90;;;;;;5035676;28;20487;-82
2021/07/17 08:39:55;;;;;;;0.50;0.30;;;29.60;99.90;;;;;;5035520;28;20449;-81
2021/07/17 08:42:25;;;;;;;0.50;0.30;;;31.00;99.90;;;;;;5035703;28;20430;-82
2021/07/17 08:44:54;;;;;;;0.50;0.30;;;32.40;98.30;;;;;;5035518;28;20427;-82
2021/07/17 08:47:21;;;;;;;0.40;0.30;;;33.70;90.60;;;;;;5034791;28;20444;-82
2021/07/17 08:49:50;;;;;;;0.40;0.30;;;33.60;84.20;;;;;;5035839;28;20442;-83
2021/07/17 08:52:17;;;;;;;0.50;0.40;;;34.90;84.50;;;;;;5035345;28;20444;-81
2021/07/17 08:54:43;;;;;;;0.40;0.30;;;35.70;76.70;;;;;;5035590;28;20453;-81
2021/07/17 08:57:11;;;;;;;0.43;0.37;;;36.30;75.30;;;;;;5035199;28;20844;-81
2021/07/17 08:59:38;;;;;;;0.40;0.40;;;37.10;69.70;;;;;;5035129;28;20487;-81
2021/07/17 09:02:05;;;;;;;0.40;0.30;;;38.30;67.60;;;;;;5035506;28;20455;-82
2021/07/17 09:04:33;;;;;;;0.40;0.30;;;39.40;61.80;;;;;;5034728;28;20439;-82
2021/07/17 09:07:01;;;;;;;0.40;0.30;;;40.40;58.70;;;;;;5035974;28;20434;-80
2021/07/17 09:12:20;;;;;;;0.40;0.33;;;41.00;55.10;;;;;;5475939;22;20546;-80
2021/07/17 09:14:47;;;;;;;0.40;0.30;;;41.50;54.10;;;;;;5036724;28;20515;-85
2021/07/17 09:17:22;;;;;;;0.40;0.30;;;41.10;55.10;;;;;;5039811;28;20478;-85
2021/07/17 09:19:55;;;;;;;0.50;0.40;;;41.60;55.00;;;;;;5043396;28;20457;-85
2021/07/17 09:22:34;;;;;;;0.40;0.30;;;41.70;52.30;;;;;;5039908;28;20466;-84
2021/07/17 09:25:09;;;;;;;0.40;0.30;;;41.50;53.40;;;;;;5042905;28;20956;-83
2021/07/17 09:27:36;;;;;;;0.40;0.30;;;41.50;52.90;;;;;;5043522;28;20843;-85
2021/07/17 09:30:04;;;;;;;0.40;0.30;;;41.60;52.30;;;;;;5042688;28;20445;-85
2021/07/17 09:32:31;;;;;;;0.40;0.40;;;42.10;53.50;;;;;;5044014;28;20864;-81
2021/07/17 09:35:10;;;;;;;0.40;0.30;;;42.70;50.70;;;;;;5041324;28;20841;-85
2021/07/17 09:37:38;;;;;;;0.40;0.30;;;42.30;51.40;;;;;;5040506;28;20521;-85
2021/07/17 09:40:10;;;;;;;0.40;0.30;;;42.60;51.00;;;;;;5040609;28;20434;-85
2021/07/17 09:42:43;;;;;;;0.40;0.30;;;42.30;51.70;;;;;;5040778;28;20469;-85
2021/07/17 09:45:10;;;;;;;0.40;0.30;;;42.20;50.20;;;;;;5040050;28;20489;-84
2021/07/17 09:47:37;;;;;;;0.40;0.30;;;41.00;53.70;;;;;;5040162;28;20449;-85
2021/07/17 09:50:14;;;;;;;0.83;0.80;;;41.10;52.70;;;;;;5040180;28;20814;-81
2021/07/17 09:52:43;;;;;;;0.40;0.30;;;40.60;52.10;;;;;;5039948;28;20501;-84
2021/07/17 09:55:12;;;;;;;0.40;0.30;;;40.20;53.20;;;;;;5039556;28;20449;-85
2021/07/17 09:57:40;;;;;;;0.40;0.30;;;40.20;53.80;;;;;;5039303;28;20843;-80
2021/07/17 10:00:08;;;;;;;0.40;0.30;;;39.90;54.00;;;;;;5039733;28;20447;-84
2021/07/17 10:02:37;;;;;;;0.40;0.30;;;40.10;52.10;;;;;;5038659;28;20513;-85
2021/07/17 10:05:04;;;;;;;0.60;0.60;;;40.50;53.60;;;;;;5038065;28;20454;-84
2021/07/17 10:07:31;;;;;;;0.40;0.30;;;40.00;52.90;;;;;;5039192;28;20851;-85
2021/07/17 10:09:59;;;;;;;0.40;0.30;;;40.20;53.20;;;;;;5038207;28;20496;-85
2021/07/17 10:12:33;;;;;;;0.50;0.40;;;39.80;53.60;;;;;;5037425;28;20525;-84
2021/07/17 10:15:00;;;;;;;0.40;0.30;;;40.00;54.60;;;;;;5039133;28;20471;-85
2021/07/17 10:17:34;;;;;;;0.40;0.30;;;40.50;54.20;;;;;;5040043;28;20500;-84
2021/07/17 10:20:01;;;;;;;0.40;0.30;;;40.90;54.00;;;;;;5039199;28;20442;-82
2021/07/17 10:22:28;;;;;;;0.70;0.63;;;40.90;55.10;;;;;;5039075;28;20461;-85
2021/07/17 10:24:55;;;;;;;0.40;0.30;;;41.00;52.00;;;;;;5038652;28;21099;-83
2021/07/17 10:27:23;;;;;;;0.40;0.40;;;40.70;52.90;;;;;;5038656;28;20436;-85
2021/07/17 10:29:51;;;;;;;0.40;0.30;;;40.40;53.20;;;;;;5039029;28;20816;-83
2021/07/17 10:32:19;;;;;;;4.53;3.60;;;40.60;52.10;;;;;;5037661;28;20456;-85
2021/07/17 10:34:46;;;;;;;0.40;0.30;;;40.40;52.70;;;;;;5038646;28;21234;-85
2021/07/17 10:37:18;;;;;;;0.40;0.30;;;40.80;52.70;;;;;;5038373;28;20481;-84
2021/07/17 10:39:49;;;;;;;0.40;0.40;;;41.40;51.00;;;;;;5038185;28;20427;-84
2021/07/17 10:42:19;;;;;;;0.70;0.67;;;41.90;50.50;;;;;;5038243;28;20485;-85
2021/07/17 10:44:49;;;;;;;0.40;0.30;;;41.80;51.20;;;;;;5037590;28;20447;-86
2021/07/17 10:47:17;;;;;;;0.50;0.40;;;41.80;50.10;;;;;;5037754;28;20438;-85
2021/07/17 10:49:48;;;;;;;0.40;0.30;;;41.60;51.40;;;;;;5038381;28;20529;-84
2021/07/17 10:52:15;;;;;;;0.40;0.30;;;41.00;50.60;;;;;;5038120;28;20459;-85
2021/07/17 10:54:42;;;;;;;0.40;0.30;;;41.20;53.10;;;;;;5037755;28;20441;-85
2021/07/17 10:57:09;;;;;;;0.40;0.30;;;40.80;50.70;;;;;;5037029;28;20481;-84
2021/07/17 10:59:44;;;;;;;0.50;0.40;;;41.00;51.80;;;;;;5037724;28;20438;-85
2021/07/17 11:02:22;;;;;;;0.40;0.30;;;41.50;51.00;;;;;;5037189;28;20474;-84
2021/07/17 11:04:51;;;;;;;0.40;0.30;;;41.40;52.10;;;;;;5038698;28;20426;-84
2021/07/17 11:07:38;;;;;;;0.40;0.30;;;41.60;51.30;;;;;;5037351;28;20962;-84
2021/07/17 11:10:16;;;;;;;0.87;0.87;;;42.00;54.70;;;;;;5038046;28;20418;-84
2021/07/17 11:13:00;;;;;;;1.83;0.40;;;41.80;49.30;;;;;;5037022;28;20453;-85
2021/07/17 11:15:42;;;;;;;0.40;0.30;;;41.50;50.40;;;;;;5037494;28;20958;-84
2021/07/17 11:18:34;;;;;;;0.40;0.30;;;41.50;50.90;;;;;;5037967;28;20462;-84
2021/07/17 11:21:04;;;;;;;0.40;0.30;;;41.00;51.10;;;;;;5037353;28;20475;-83
2021/07/17 11:23:43;;;;;;;0.40;0.30;;;40.80;52.20;;;;;;5036275;28;20445;-84
2021/07/17 11:26:18;;;;;;;0.40;0.30;;;40.60;53.70;;;;;;5038238;28;20429;-85
2021/07/17 11:29:07;;;;;;;0.50;0.30;;;40.10;51.50;;;;;;5037115;28;20437;-85
2021/07/17 11:31:41;;;;;;;0.40;0.30;;;39.70;54.60;;;;;;5035802;28;20470;-85
2021/07/17 11:34:32;;;;;;;0.40;0.30;;;39.80;54.40;;;;;;5038914;28;20527;-84
2021/07/17 11:37:02;;;;;;;0.40;0.30;;;40.40;53.40;;;;;;5040450;28;20468;-85
2021/07/17 11:39:33;;;;;;;0.40;0.30;;;41.00;53.00;;;;;;5040902;28;20445;-85
2021/07/17 11:42:01;;;;;;;0.50;0.40;;;41.10;51.50;;;;;;5040193;28;20471;-84
2021/07/17 11:44:28;;;;;;;0.40;0.30;;;40.30;51.40;;;;;;5045317;28;20427;-83
2021/07/17 11:46:56;;;;;;;0.40;0.30;;;39.70;53.20;;;;;;5046672;28;20490;-84
2021/07/17 11:49:27;;;;;;;0.40;0.30;;;39.70;53.50;;;;;;5042257;28;20444;-85
2021/07/17 11:51:58;;;;;;;0.40;0.30;;;39.80;52.50;;;;;;5043284;28;20459;-83
2021/07/17 11:54:27;;;;;;;0.40;0.30;;;39.80;54.20;;;;;;5043310;28;20491;-84
2021/07/17 11:57:09;;;;;;;0.40;0.30;;;40.20;54.70;;;;;;5042507;28;20448;-85
2021/07/17 11:59:37;;;;;;;0.40;0.30;;;40.80;51.70;;;;;;5043657;28;20437;-84
2021/07/17 12:02:08;;;;;;;0.40;0.30;;;40.00;51.90;;;;;;5042910;28;20462;-85
2021/07/17 12:04:36;;;;;;;0.50;0.30;;;39.90;54.90;;;;;;5042911;28;20524;-83
2021/07/17 12:07:08;;;;;;;0.40;0.30;;;40.40;52.90;;;;;;5043024;28;20457;-84
2021/07/17 12:09:36;;;;;;;0.40;0.30;;;40.40;51.90;;;;;;5042659;28;20436;-85
2021/07/17 12:12:28;;;;;;;1.00;0.50;;;39.30;52.20;;;;;;5041206;28;20455;-84
2021/07/17 12:15:22;;;;;;;0.40;0.30;;;38.90;51.60;;;;;;5042357;28;20449;-85
2021/07/17 12:17:58;;;;;;;0.40;0.30;;;39.30;53.70;;;;;;5037719;28;20600;-84
2021/07/17 12:20:28;;;;;;;0.40;0.30;;;40.10;54.50;;;;;;5041463;28;20929;-85
2021/07/17 12:23:04;;;;;;;0.40;0.30;;;39.90;52.60;;;;;;5041953;28;20944;-84
2021/07/17 12:25:33;;;;;;;0.40;0.30;;;40.20;53.30;;;;;;5041756;28;20444;-83
2021/07/17 12:28:10;;;;;;;0.40;0.30;;;39.80;52.60;;;;;;5042089;28;20432;-84
2021/07/17 12:30:42;;;;;;;0.40;0.30;;;39.50;53.30;;;;;;5041525;28;20455;-83
2021/07/17 12:33:28;;;;;;;0.40;0.30;;;39.20;53.30;;;;;;5041594;28;20490;-85
2021/07/17 12:36:07;;;;;;;0.50;0.50;;;39.10;54.40;;;;;;5040834;28;20444;-84
2021/07/17 12:38:38;;;;;;;0.40;0.30;;;38.90;53.00;;;;;;5041568;28;20473;-84
2021/07/17 12:41:06;;;;;;;0.40;0.30;;;39.10;52.40;;;;;;5041345;28;20471;-84
2021/07/17 12:43:40;;;;;;;0.40;0.30;;;39.70;52.50;;;;;;5041097;28;20573;-82
2021/07/17 12:46:11;;;;;;;0.50;0.43;;;40.30;52.10;;;;;;5041372;28;20436;-84
2021/07/17 12:48:50;;;;;;;0.40;0.30;;;39.50;52.00;;;;;;5041240;28;20438;-84
2021/07/17 12:51:20;;;;;;;0.50;0.40;;;39.90;52.40;;;;;;5040551;28;20491;-84
2021/07/17 12:53:50;;;;;;;0.40;0.30;;;39.60;51.90;;;;;;5040722;28;20496;-84
2021/07/17 12:56:29;;;;;;;0.40;0.30;;;39.70;51.40;;;;;;5040798;28;20940;-84
2021/07/17 12:58:56;;;;;;;0.40;0.30;;;39.90;51.50;;;;;;5040945;28;21029;-84